createdAt,value
2022-12-15T00:01:48.562Z,9.68
2022-12-15T00:05:10.699Z,9.82
2022-12-15T00:08:32.723Z,9.13
2022-12-15T00:11:54.458Z,9.50
2022-12-15T00:15:16.418Z,7.63
2022-12-15T00:18:38.982Z,8.73
2022-12-15T00:22:00.860Z,9.55
2022-12-15T00:25:23.054Z,9.02
2022-12-15T00:28:45.158Z,9.32
2022-12-15T00:32:07.086Z,9.33
2022-12-15T00:35:28.917Z,9.30
2022-12-15T00:38:44.406Z,9.55
2022-12-15T00:41:47.824Z,9.55
2022-12-15T00:44:51.343Z,9.80
2022-12-15T00:47:54.777Z,10.30
2022-12-15T00:50:58.161Z,10.32
2022-12-15T00:54:20.226Z,9.82
2022-12-15T00:57:42.116Z,9.90
2022-12-15T01:01:03.749Z,10.90
2022-12-15T01:04:25.862Z,9.47
2022-12-15T01:07:49.652Z,12.00
2022-12-15T01:11:12.028Z,11.40
2022-12-15T01:14:34.106Z,10.93
2022-12-15T01:17:55.773Z,12.07
2022-12-15T01:21:08.397Z,11.32
2022-12-15T01:24:11.731Z,11.40
2022-12-15T01:27:15.117Z,12.20
2022-12-15T01:30:23.995Z,11.65
2022-12-15T01:33:27.648Z,11.93
2022-12-15T01:36:31.385Z,11.02
2022-12-15T01:39:53.503Z,11.68
2022-12-15T01:42:56.878Z,11.45
2022-12-15T01:46:26.586Z,11.70
2022-12-15T01:49:31.837Z,12.40
2022-12-15T01:52:35.437Z,12.07
2022-12-15T01:55:40.705Z,11.30
2022-12-15T01:58:48.130Z,12.20
2022-12-15T02:01:51.657Z,12.00
2022-12-15T02:04:57.958Z,11.50
2022-12-15T02:08:02.573Z,12.35
2022-12-15T02:11:27.181Z,13.25
2022-12-15T02:15:07.900Z,11.98
2022-12-15T02:18:22.145Z,11.30
2022-12-15T02:21:46.976Z,11.33
2022-12-15T02:24:54.099Z,10.75
2022-12-15T02:28:32.523Z,11.07
2022-12-15T02:31:51.199Z,10.05
2022-12-15T02:35:01.532Z,11.70
2022-12-15T02:38:05.042Z,12.38
2022-12-15T02:41:39.885Z,11.02
2022-12-15T02:44:50.442Z,11.63
2022-12-15T02:48:23.277Z,11.45
2022-12-15T02:51:41.514Z,11.37
2022-12-15T02:55:13.299Z,10.95
2022-12-15T02:59:01.832Z,11.23
2022-12-15T03:02:08.880Z,11.45
2022-12-15T03:05:14.324Z,11.98
2022-12-15T03:08:17.719Z,10.57
2022-12-15T03:11:21.230Z,12.15
2022-12-15T03:14:27.531Z,12.23
2022-12-15T03:17:30.908Z,11.95
2022-12-15T03:20:34.313Z,12.77
2022-12-15T03:23:37.799Z,13.13
2022-12-15T03:26:41.191Z,12.95
2022-12-15T03:29:44.502Z,13.10
2022-12-15T03:32:47.963Z,14.95
2022-12-15T03:35:51.817Z,15.35
2022-12-15T03:38:55.213Z,14.93
2022-12-15T03:41:58.573Z,14.50
2022-12-15T03:45:02.120Z,13.85
2022-12-15T03:48:05.862Z,15.35
2022-12-15T03:51:09.158Z,16.67
2022-12-15T03:54:14.213Z,17.20
2022-12-15T03:57:17.747Z,16.42
2022-12-15T04:00:23.073Z,13.43
2022-12-15T04:03:26.689Z,14.05
2022-12-15T04:06:31.336Z,14.47
2022-12-15T04:09:35.257Z,15.70
2022-12-15T04:12:39.763Z,14.45
2022-12-15T04:15:43.174Z,14.43
2022-12-15T04:18:46.556Z,19.20
2022-12-15T04:21:49.965Z,13.82
2022-12-15T04:25:11.810Z,14.40
2022-12-15T04:28:34.049Z,15.02
2022-12-15T04:31:55.930Z,15.90
2022-12-15T04:35:17.950Z,14.93
2022-12-15T04:38:47.121Z,14.25
2022-12-15T04:42:16.278Z,13.70
2022-12-15T04:45:41.527Z,12.63
2022-12-15T04:49:03.743Z,13.65
2022-12-15T04:52:25.844Z,13.50
2022-12-15T04:55:47.972Z,13.00
2022-12-15T04:59:10.186Z,19.75
2022-12-15T05:02:32.354Z,26.35
2022-12-15T05:05:54.423Z,18.58
2022-12-15T05:09:16.058Z,20.37
2022-12-15T05:12:37.867Z,19.70
2022-12-15T05:16:01.161Z,19.65
2022-12-15T05:19:22.976Z,16.02
2022-12-15T05:22:44.972Z,13.40
2022-12-15T05:26:06.837Z,13.77
2022-12-15T05:29:28.922Z,13.00
2022-12-15T05:32:35.410Z,13.27
2022-12-15T05:35:39.025Z,12.82
2022-12-15T05:38:42.489Z,13.05
2022-12-15T05:41:46.174Z,12.93
2022-12-15T05:44:49.475Z,13.38
2022-12-15T05:47:54.234Z,13.43
2022-12-15T05:50:57.644Z,11.48
2022-12-15T05:54:01.259Z,12.48
2022-12-15T05:57:04.999Z,12.07
2022-12-15T06:00:09.082Z,12.30
2022-12-15T06:03:17.990Z,14.20
2022-12-15T06:06:21.859Z,12.20
2022-12-15T06:09:25.544Z,13.80
2022-12-15T06:12:29.517Z,13.70
2022-12-15T06:15:32.822Z,13.73
2022-12-15T06:18:38.260Z,13.50
2022-12-15T06:21:41.574Z,17.88
2022-12-15T06:24:45.013Z,38.47
2022-12-15T06:27:48.366Z,31.93
2022-12-15T06:30:56.591Z,24.30
2022-12-15T06:34:02.901Z,18.42
2022-12-15T06:37:06.298Z,21.42
2022-12-15T06:40:10.281Z,21.67
2022-12-15T06:43:13.687Z,19.13
2022-12-15T06:46:18.053Z,13.50
2022-12-15T06:49:21.800Z,14.73
2022-12-15T06:52:25.414Z,14.85
2022-12-15T06:55:29.351Z,14.30
2022-12-15T06:58:33.345Z,19.42
2022-12-15T07:01:37.257Z,16.70
2022-12-15T07:04:40.970Z,15.30
2022-12-15T07:07:44.567Z,14.85
2022-12-15T07:10:48.232Z,17.00
2022-12-15T07:13:52.942Z,15.80
2022-12-15T07:16:56.814Z,16.65
2022-12-15T07:20:00.259Z,15.23
2022-12-15T07:23:09.797Z,17.27
2022-12-15T07:26:14.791Z,16.87
2022-12-15T07:29:23.285Z,18.38
2022-12-15T07:32:31.360Z,16.08
2022-12-15T07:35:36.267Z,16.23
2022-12-15T07:38:39.890Z,17.90
2022-12-15T07:41:43.636Z,15.50
2022-12-15T07:44:47.384Z,15.23
2022-12-15T07:47:54.263Z,14.45
2022-12-15T07:51:06.583Z,15.00
2022-12-15T07:54:12.741Z,14.25
2022-12-15T07:57:16.531Z,13.00
2022-12-15T08:00:20.236Z,14.00
2022-12-15T08:03:24.555Z,13.30
2022-12-15T08:06:28.262Z,14.20
2022-12-15T08:09:32.134Z,13.57
2022-12-15T08:12:35.910Z,13.87
2022-12-15T08:15:39.495Z,13.52
2022-12-15T08:18:43.048Z,16.48
2022-12-15T08:21:47.383Z,16.50
2022-12-15T08:24:51.113Z,18.17
2022-12-15T08:27:55.111Z,14.27
2022-12-15T08:31:07.415Z,15.80
2022-12-15T08:34:11.785Z,16.27
2022-12-15T08:37:15.510Z,15.43
2022-12-15T08:40:19.253Z,14.65
2022-12-15T08:43:23.042Z,14.90
2022-12-15T08:46:30.109Z,13.70
2022-12-15T08:49:34.236Z,14.95
2022-12-15T08:52:55.342Z,16.30
2022-12-15T08:56:12.492Z,14.30
2022-12-15T08:59:16.278Z,18.27
2022-12-15T09:02:20.070Z,19.00
2022-12-15T09:05:23.634Z,13.27
2022-12-15T09:08:27.252Z,14.18
2022-12-15T09:11:31.972Z,14.35
2022-12-15T09:14:35.711Z,15.00
2022-12-15T09:17:39.343Z,15.73
2022-12-15T09:20:43.057Z,14.13
2022-12-15T09:23:52.561Z,14.73
2022-12-15T09:26:56.712Z,14.88
2022-12-15T09:30:00.270Z,12.70
2022-12-15T09:33:04.054Z,13.02
2022-12-15T09:36:08.858Z,12.93
2022-12-15T09:39:13.112Z,12.55
2022-12-15T09:42:28.742Z,14.20
2022-12-15T09:45:40.039Z,11.93
2022-12-15T09:48:45.701Z,12.35
2022-12-15T09:52:07.329Z,11.50
2022-12-15T09:55:30.793Z,12.65
2022-12-15T09:58:45.468Z,14.02
2022-12-15T10:02:14.082Z,13.53
2022-12-15T10:06:21.585Z,14.63
2022-12-15T10:09:24.399Z,13.32
2022-12-15T10:12:34.359Z,15.55
2022-12-15T10:16:07.748Z,15.68
2022-12-15T10:19:38.798Z,17.67
2022-12-15T10:22:43.050Z,17.50
2022-12-15T10:25:57.250Z,17.17
2022-12-15T10:29:19.028Z,19.27
2022-12-15T10:32:51.716Z,18.13
2022-12-15T10:35:56.091Z,23.10
2022-12-15T10:39:01.422Z,20.02
2022-12-15T10:42:22.664Z,15.43
2022-12-15T10:45:38.610Z,15.10
2022-12-15T10:48:44.521Z,16.00
2022-12-15T10:52:03.235Z,15.10
2022-12-15T10:55:32.722Z,12.75
2022-12-15T10:58:54.577Z,14.63
2022-12-15T11:02:25.699Z,13.20
2022-12-15T11:05:29.503Z,14.38
2022-12-15T11:08:33.289Z,15.43
2022-12-15T11:12:06.024Z,14.25
2022-12-15T11:15:32.446Z,15.32
2022-12-15T11:18:50.891Z,13.52
2022-12-15T11:22:00.058Z,14.07
2022-12-15T11:25:16.438Z,14.07
2022-12-15T11:28:25.458Z,15.25
2022-12-15T11:31:50.345Z,14.13
2022-12-15T11:34:54.176Z,12.60
2022-12-15T11:38:11.396Z,13.63
2022-12-15T11:41:37.380Z,13.13
2022-12-15T11:44:57.078Z,11.85
2022-12-15T11:48:32.969Z,15.40
2022-12-15T11:51:47.367Z,20.35
2022-12-15T11:55:14.855Z,14.15
2022-12-15T11:59:03.367Z,12.90
2022-12-15T12:02:48.370Z,13.45
2022-12-15T12:06:08.864Z,17.13
2022-12-15T12:09:27.174Z,14.13
2022-12-15T12:13:00.323Z,18.27
2022-12-15T12:16:54.792Z,19.43
2022-12-15T12:20:11.620Z,14.70
2022-12-15T12:23:47.240Z,15.50
2022-12-15T12:27:13.785Z,15.63
2022-12-15T12:30:21.475Z,24.33
2022-12-15T12:33:45.088Z,31.37
2022-12-15T12:36:51.587Z,26.43
2022-12-15T12:40:02.319Z,20.67
2022-12-15T12:43:11.868Z,20.40
2022-12-15T12:46:40.710Z,20.88
2022-12-15T12:49:52.797Z,26.63
2022-12-15T12:52:58.793Z,20.75
2022-12-15T12:56:02.558Z,18.42
2022-12-15T12:59:29.263Z,18.15
2022-12-15T13:02:35.505Z,13.30
2022-12-15T13:05:41.253Z,15.30
2022-12-15T13:08:53.227Z,15.13
2022-12-15T13:12:03.193Z,15.90
2022-12-15T13:15:29.637Z,15.55
2022-12-15T13:18:57.639Z,15.05
2022-12-15T13:22:01.566Z,14.57
2022-12-15T13:25:36.340Z,14.57
2022-12-15T13:28:48.272Z,15.57
2022-12-15T13:31:58.587Z,14.35
2022-12-15T13:35:21.527Z,15.30
2022-12-15T13:38:52.995Z,14.60
2022-12-15T13:42:33.268Z,14.60
2022-12-15T13:45:33.304Z,16.00
2022-12-15T13:48:38.091Z,14.32
2022-12-15T13:51:51.642Z,15.25
2022-12-15T13:55:00.542Z,17.07
2022-12-15T13:58:07.091Z,14.60
2022-12-15T14:01:33.001Z,16.42
2022-12-15T14:04:36.936Z,15.55
2022-12-15T14:07:54.504Z,14.57
2022-12-15T14:11:06.946Z,15.90
2022-12-15T14:14:29.213Z,15.80
2022-12-15T14:17:36.804Z,15.48
2022-12-15T14:20:42.926Z,15.88
2022-12-15T14:24:19.251Z,15.23
2022-12-15T14:27:21.427Z,15.63
2022-12-15T14:30:25.885Z,14.80
2022-12-15T14:33:31.784Z,15.05
2022-12-15T14:36:37.036Z,15.10
2022-12-15T14:39:50.126Z,16.50
2022-12-15T14:42:59.105Z,16.53
2022-12-15T14:46:20.970Z,16.33
2022-12-15T14:49:33.187Z,16.85
2022-12-15T14:52:41.578Z,17.95
2022-12-15T14:55:45.199Z,18.10
2022-12-15T14:59:18.550Z,19.67
2022-12-15T15:02:29.049Z,17.45
2022-12-15T15:05:33.980Z,19.58
2022-12-15T15:08:47.156Z,18.50
2022-12-15T15:12:02.654Z,18.27
2022-12-15T15:15:08.174Z,17.93
2022-12-15T15:18:16.910Z,17.65
2022-12-15T15:21:26.549Z,18.23
2022-12-15T15:24:37.690Z,18.38
2022-12-15T15:27:41.099Z,17.58
2022-12-15T15:30:49.116Z,16.77
2022-12-15T15:33:53.136Z,17.30
2022-12-15T15:36:56.657Z,16.95
2022-12-15T15:40:00.212Z,15.93
2022-12-15T15:43:12.446Z,19.10
2022-12-15T15:46:22.365Z,20.27
2022-12-15T15:49:25.915Z,22.25
2022-12-15T15:52:32.077Z,23.05
2022-12-15T15:55:39.656Z,22.10
2022-12-15T15:58:43.984Z,22.77
2022-12-15T16:01:54.912Z,22.27
2022-12-15T16:04:58.464Z,25.00
2022-12-15T16:08:03.159Z,21.30
2022-12-15T16:11:10.184Z,20.23
2022-12-15T16:14:15.186Z,21.30
2022-12-15T16:17:19.014Z,25.43
2022-12-15T16:20:25.619Z,21.67
2022-12-15T16:23:30.058Z,17.92
2022-12-15T16:26:35.757Z,16.00
2022-12-15T16:29:39.485Z,15.43
2022-12-15T16:32:43.194Z,14.23
2022-12-15T16:35:50.238Z,13.48
2022-12-15T16:38:54.243Z,14.48
2022-12-15T16:41:57.843Z,13.70
2022-12-15T16:45:01.302Z,14.80
2022-12-15T16:48:04.723Z,14.60
2022-12-15T16:51:10.652Z,14.40
2022-12-15T16:54:32.317Z,14.02
2022-12-15T16:57:36.057Z,14.15
2022-12-15T17:00:39.473Z,16.48
2022-12-15T17:03:43.299Z,14.87
2022-12-15T17:06:47.085Z,15.40
2022-12-15T17:09:52.077Z,16.17
2022-12-15T17:13:18.497Z,18.20
2022-12-15T17:16:23.849Z,22.80
2022-12-15T17:19:27.338Z,37.73
2022-12-15T17:22:30.954Z,55.42
2022-12-15T17:26:19.665Z,46.03
2022-12-15T17:29:18.312Z,42.50
2022-12-15T17:32:21.895Z,43.10
2022-12-15T17:35:25.406Z,36.50
2022-12-15T17:38:29.013Z,35.28
2022-12-15T17:44:55.851Z,30.08
2022-12-15T17:48:00.341Z,32.50
2022-12-15T17:51:10.909Z,23.20
2022-12-15T17:54:17.178Z,21.45
2022-12-15T17:57:21.003Z,22.33
2022-12-15T18:00:28.346Z,25.45
2022-12-15T18:03:33.009Z,27.08
2022-12-15T18:06:41.837Z,24.37
2022-12-15T18:09:45.596Z,26.40
2022-12-15T18:12:49.162Z,24.13
2022-12-15T18:15:53.207Z,24.70
2022-12-15T18:18:56.726Z,18.65
2022-12-15T18:22:00.203Z,18.57
2022-12-15T18:25:03.975Z,18.60
2022-12-15T18:28:26.106Z,19.02
2022-12-15T18:31:31.883Z,19.02
2022-12-15T18:34:36.345Z,19.70
2022-12-15T18:37:39.865Z,18.03
2022-12-15T18:40:44.986Z,19.55
2022-12-15T18:43:49.079Z,19.45
2022-12-15T18:46:55.190Z,18.42
2022-12-15T18:49:59.802Z,18.40
2022-12-15T18:53:04.236Z,19.93
2022-12-15T18:56:09.095Z,19.65
2022-12-15T18:59:17.246Z,22.27
2022-12-15T19:02:20.776Z,22.83
2022-12-15T19:05:32.591Z,21.20
2022-12-15T19:08:38.188Z,20.77
2022-12-15T19:12:02.129Z,22.00
2022-12-15T19:15:14.881Z,23.05
2022-12-15T19:18:38.553Z,22.95
2022-12-15T19:22:01.607Z,23.47
2022-12-15T19:25:07.143Z,24.20
2022-12-15T19:28:23.677Z,24.48
2022-12-15T19:31:27.789Z,24.15
2022-12-15T19:34:31.867Z,24.33
2022-12-15T19:37:36.715Z,22.00
2022-12-15T19:40:41.045Z,23.77
2022-12-15T19:43:45.016Z,24.08
2022-12-15T19:46:48.771Z,19.05
2022-12-15T19:49:52.999Z,23.60
2022-12-15T19:53:01.664Z,22.67
2022-12-15T19:56:05.432Z,18.55
2022-12-15T19:59:19.893Z,17.35
2022-12-15T20:02:23.716Z,17.83
2022-12-15T20:05:27.568Z,18.05
2022-12-15T20:08:37.167Z,17.00
2022-12-15T20:11:41.605Z,17.15
2022-12-15T20:14:46.298Z,17.83
2022-12-15T20:17:56.903Z,20.75
2022-12-15T20:21:01.478Z,18.50
2022-12-15T20:24:13.990Z,19.37
2022-12-15T20:27:19.505Z,20.45
2022-12-15T20:30:26.945Z,20.58
2022-12-15T20:33:30.981Z,23.10
2022-12-15T20:36:36.378Z,22.08
2022-12-15T20:39:40.018Z,19.53
2022-12-15T20:42:43.481Z,22.95
2022-12-15T20:45:51.967Z,22.15
2022-12-15T20:48:58.409Z,26.67
2022-12-15T20:52:02.335Z,24.02
2022-12-15T20:55:13.355Z,26.07
2022-12-15T20:58:17.780Z,31.25
2022-12-15T21:01:27.889Z,24.60
2022-12-15T21:04:32.796Z,26.08
2022-12-15T21:07:36.305Z,23.27
2022-12-15T21:10:39.902Z,24.20
2022-12-15T21:13:43.978Z,23.15
2022-12-15T21:16:47.972Z,24.77
2022-12-15T21:19:51.841Z,24.20
2022-12-15T21:22:55.307Z,22.65
2022-12-15T21:26:01.531Z,23.30
2022-12-15T21:29:29.822Z,22.55
2022-12-15T21:32:33.426Z,24.35
2022-12-15T21:35:37.687Z,21.90
2022-12-15T21:38:43.225Z,23.00
2022-12-15T21:41:46.721Z,23.40
2022-12-15T21:44:50.098Z,22.55
2022-12-15T21:48:12.524Z,25.05
2022-12-15T21:51:17.656Z,23.42
2022-12-15T21:54:29.013Z,20.58
2022-12-15T21:57:34.480Z,24.27
2022-12-15T22:00:40.930Z,18.23
2022-12-15T22:03:52.678Z,18.13
2022-12-15T22:06:58.039Z,17.60
2022-12-15T22:10:01.484Z,17.55
2022-12-15T22:13:04.942Z,18.47
2022-12-15T22:16:09.726Z,18.75
2022-12-15T22:19:13.938Z,18.02
2022-12-15T22:22:17.501Z,19.90
2022-12-15T22:25:24.102Z,19.73
2022-12-15T22:28:29.197Z,20.10
2022-12-15T22:31:33.164Z,17.98
2022-12-15T22:34:37.230Z,18.02
2022-12-15T22:37:40.524Z,18.08
2022-12-15T22:40:45.850Z,17.70
2022-12-15T22:43:55.173Z,17.07
2022-12-15T22:47:01.005Z,16.80
2022-12-15T22:50:06.409Z,16.88
2022-12-15T22:53:17.985Z,15.60
2022-12-15T22:56:28.371Z,15.77
2022-12-15T22:59:37.857Z,16.70
2022-12-15T23:02:45.446Z,15.70
2022-12-15T23:05:49.054Z,16.20
2022-12-15T23:08:55.958Z,16.30
2022-12-15T23:11:59.798Z,15.45
2022-12-15T23:15:21.924Z,16.97
2022-12-15T23:18:25.316Z,19.50
2022-12-15T23:21:29.179Z,27.92
2022-12-15T23:24:32.693Z,26.98
2022-12-15T23:27:36.014Z,24.67
2022-12-15T23:30:39.504Z,19.97
2022-12-15T23:33:43.122Z,21.27
2022-12-15T23:36:46.945Z,16.02
2022-12-15T23:39:50.513Z,17.00
2022-12-15T23:42:55.332Z,16.70
2022-12-15T23:46:05.604Z,19.17
2022-12-15T23:49:09.414Z,17.43
2022-12-15T23:52:13.181Z,18.20
2022-12-15T23:55:16.705Z,15.90
2022-12-15T23:58:20.117Z,18.17
